Time;durP1;ratioP1;P1;durP2;ratioP2;P2;SDS_P1;SDS_P2;PMS_P1;PMS_P2;Temp;Humidity;BMP_temperature;BMP_pressure;BME280_temperature;BME280_humidity;BME280_pressure;Samples;Min_cycle;Max_cycle;Signal;HPM_P1;HPM_P2
2023/08/01 00:01:22;;;;;;;;;;;18.10;98.80;;;;;;5087853;28;20011;-66
2023/08/01 00:03:47;;;;;;;;;;;18.10;98.80;;;;;;5087147;28;19935;-67
2023/08/01 00:06:13;;;;;;;;;;;18.20;98.80;;;;;;5086802;28;20268;-67
2023/08/01 00:08:38;;;;;;;;;;;18.10;98.80;;;;;;5087834;28;20409;-67
2023/08/01 00:11:04;;;;;;;;;;;18.10;98.80;;;;;;5087598;28;20413;-67
2023/08/01 00:13:29;;;;;;;;;;;18.10;98.70;;;;;;5087153;28;19912;-67
2023/08/01 00:15:55;;;;;;;;;;;18.10;98.80;;;;;;5086282;28;19912;-68
2023/08/01 00:18:20;;;;;;;;;;;18.10;98.70;;;;;;5068829;28;19916;-67
2023/08/01 00:20:46;;;;;;;;;;;18.10;98.80;;;;;;5087486;28;19912;-66
2023/08/01 00:23:11;;;;;;;;;;;18.10;98.80;;;;;;5069089;28;19919;-67
2023/08/01 00:25:37;;;;;;;;;;;18.10;98.80;;;;;;5102401;28;20004;-67
2023/08/01 00:28:02;;;;;;;;;;;18.10;98.80;;;;;;5068697;28;19919;-67
2023/08/01 00:30:28;;;;;;;;;;;18.10;98.80;;;;;;5087220;28;19923;-67
2023/08/01 00:32:53;;;;;;;;;;;18.10;98.80;;;;;;5087452;28;19919;-67
2023/08/01 00:35:19;;;;;;;;;;;18.10;98.80;;;;;;5068716;28;19912;-67
2023/08/01 00:37:44;;;;;;;;;;;18.10;98.80;;;;;;5086949;28;19916;-67
2023/08/01 00:40:11;;;;;;;;;;;18.10;98.70;;;;;;5087202;28;19951;-67
2023/08/01 00:42:37;;;;;;;;;;;18.00;98.80;;;;;;5088464;28;19915;-67
2023/08/01 00:45:04;;;;;;;;;;;18.10;98.90;;;;;;5091150;28;19912;-67
2023/08/01 00:47:29;;;;;;;;;;;18.10;98.90;;;;;;5090719;28;19912;-67
2023/08/01 00:49:55;;;;;;;;;;;18.00;99.00;;;;;;5072777;28;20397;-66
2023/08/01 00:52:21;;;;;;;;;;;18.00;98.90;;;;;;5090726;28;19919;-67
2023/08/01 00:54:46;;;;;;;;;;;18.00;98.90;;;;;;5099024;28;20333;-66
2023/08/01 00:57:12;;;;;;;;;;;18.00;98.90;;;;;;5110838;28;19934;-66
2023/08/01 00:59:38;;;;;;;;;;;18.00;99.00;;;;;;5103830;28;19908;-67
2023/08/01 01:02:04;;;;;;;;;;;18.00;99.10;;;;;;5090178;28;19912;-67
2023/08/01 01:04:30;;;;;;;;;;;18.00;98.90;;;;;;5090485;28;19912;-67
2023/08/01 01:07:02;;;;;;;;;;;18.00;98.80;;;;;;5074528;28;20379;-66
2023/08/01 01:09:28;;;;;;;;;;;18.00;98.80;;;;;;5092573;28;19998;-66
2023/08/01 01:11:54;;;;;;;;;;;18.00;98.80;;;;;;5110848;28;19962;-66
2023/08/01 01:14:19;;;;;;;;;;;17.90;98.80;;;;;;5101850;28;19917;-67
2023/08/01 01:16:45;;;;;;;;;;;17.90;98.90;;;;;;5085366;28;20347;-67
2023/08/01 01:19:10;;;;;;;;;;;17.90;98.80;;;;;;5071916;28;20030;-66
2023/08/01 01:21:37;;;;;;;;;;;17.90;98.80;;;;;;5090241;28;19912;-66
2023/08/01 01:24:04;;;;;;;;;;;17.90;98.80;;;;;;5092099;28;19919;-66
2023/08/01 01:26:31;;;;;;;;;;;17.90;98.80;;;;;;5105385;28;19912;-66
2023/08/01 01:28:56;;;;;;;;;;;17.90;98.80;;;;;;5090130;28;20293;-66
2023/08/01 01:31:22;;;;;;;;;;;17.90;98.70;;;;;;5090169;28;19912;-66
2023/08/01 01:33:49;;;;;;;;;;;17.90;98.80;;;;;;5072821;28;19923;-66
2023/08/01 01:36:14;;;;;;;;;;;17.90;98.70;;;;;;5089969;28;19912;-66
2023/08/01 01:38:40;;;;;;;;;;;17.90;98.70;;;;;;5089808;28;20277;-66
2023/08/01 01:41:05;;;;;;;;;;;17.90;98.70;;;;;;5089982;28;19912;-66
2023/08/01 01:43:31;;;;;;;;;;;17.90;98.70;;;;;;5107646;28;20353;-66
2023/08/01 01:45:56;;;;;;;;;;;17.90;98.70;;;;;;5073780;28;20636;-66
2023/08/01 01:48:22;;;;;;;;;;;17.90;98.70;;;;;;5069952;28;19912;-66
2023/08/01 01:50:47;;;;;;;;;;;17.90;98.70;;;;;;5091031;28;19915;-66
2023/08/01 01:53:12;;;;;;;;;;;17.90;98.80;;;;;;5089459;28;19947;-66
2023/08/01 01:55:38;;;;;;;;;;;17.80;98.80;;;;;;5104086;28;19916;-67
2023/08/01 01:58:04;;;;;;;;;;;17.90;98.80;;;;;;5109530;28;19916;-66
2023/08/01 02:00:29;;;;;;;;;;;17.90;98.80;;;;;;5097497;28;20003;-67
2023/08/01 02:02:55;;;;;;;;;;;17.90;98.80;;;;;;5089087;28;19912;-66
2023/08/01 02:05:20;;;;;;;;;;;17.90;98.70;;;;;;5072018;28;19916;-67
2023/08/01 02:07:46;;;;;;;;;;;17.90;98.70;;;;;;5089370;28;19916;-67
2023/08/01 02:10:11;;;;;;;;;;;17.80;98.70;;;;;;5090339;28;20519;-67
2023/08/01 02:12:37;;;;;;;;;;;17.80;98.70;;;;;;5089157;28;20006;-66
2023/08/01 02:15:02;;;;;;;;;;;17.80;98.80;;;;;;5089333;28;20006;-66
2023/08/01 02:17:28;;;;;;;;;;;17.80;98.80;;;;;;5088761;28;19920;-66
2023/08/01 02:19:53;;;;;;;;;;;17.80;98.90;;;;;;5070949;28;20675;-67
2023/08/01 02:22:19;;;;;;;;;;;17.80;98.80;;;;;;5090363;28;20579;-66
2023/08/01 02:24:45;;;;;;;;;;;17.80;99.10;;;;;;5098032;28;19923;-66
2023/08/01 02:27:10;;;;;;;;;;;17.80;99.10;;;;;;5109187;28;20233;-66
2023/08/01 02:29:36;;;;;;;;;;;17.80;98.90;;;;;;5109669;28;19915;-67
2023/08/01 02:32:02;;;;;;;;;;;17.80;98.90;;;;;;5109339;28;19911;-66
2023/08/01 02:34:27;;;;;;;;;;;17.80;99.20;;;;;;5081115;28;20396;-66
2023/08/01 02:36:53;;;;;;;;;;;17.80;98.90;;;;;;5088586;28;19908;-67
2023/08/01 02:39:18;;;;;;;;;;;17.70;98.90;;;;;;5090307;28;20280;-67
2023/08/01 02:41:44;;;;;;;;;;;17.70;99.00;;;;;;5088546;28;19912;-67
2023/08/01 02:44:09;;;;;;;;;;;17.70;98.90;;;;;;5088294;28;19986;-67
2023/08/01 02:46:35;;;;;;;;;;;17.70;99.00;;;;;;5088263;28;19922;-67
2023/08/01 02:49:00;;;;;;;;;;;17.70;99.00;;;;;;5088713;28;19912;-67
2023/08/01 02:51:26;;;;;;;;;;;17.60;98.90;;;;;;5069900;28;19989;-66
2023/08/01 02:53:51;;;;;;;;;;;17.70;98.90;;;;;;5087286;28;19913;-67
2023/08/01 02:56:17;;;;;;;;;;;17.70;99.00;;;;;;5089338;28;19916;-67
2023/08/01 02:58:42;;;;;;;;;;;17.60;98.90;;;;;;5104351;28;19919;-67
2023/08/01 03:01:11;;;;;;;;;;;17.60;98.90;;;;;;5090849;28;19912;-66
2023/08/01 03:03:37;;;;;;;;;;;17.60;99.10;;;;;;5070015;28;19936;-67
2023/08/01 03:06:03;;;;;;;;;;;17.60;98.90;;;;;;5094934;28;20552;-67
2023/08/01 03:08:28;;;;;;;;;;;17.60;99.00;;;;;;5108044;28;19915;-67
2023/08/01 03:10:54;;;;;;;;;;;17.60;98.90;;;;;;5108868;28;19912;-67
2023/08/01 03:13:20;;;;;;;;;;;17.60;98.90;;;;;;5106702;28;19916;-67
2023/08/01 03:15:45;;;;;;;;;;;17.60;99.00;;;;;;5075441;28;20491;-67
2023/08/01 03:18:11;;;;;;;;;;;17.60;99.00;;;;;;5067819;28;19912;-67
2023/08/01 03:20:36;;;;;;;;;;;17.60;99.10;;;;;;5049758;28;20432;-67
2023/08/01 03:23:02;;;;;;;;;;;17.60;99.10;;;;;;5068883;28;19912;-67
2023/08/01 03:25:27;;;;;;;;;;;17.60;99.00;;;;;;5086666;28;19920;-67
2023/08/01 03:27:54;;;;;;;;;;;17.60;99.00;;;;;;5087347;28;20443;-67
2023/08/01 03:30:20;;;;;;;;;;;17.60;98.90;;;;;;5088980;28;20007;-67
2023/08/01 03:32:46;;;;;;;;;;;17.50;99.00;;;;;;5087804;28;19912;-67
2023/08/01 03:35:13;;;;;;;;;;;17.50;99.10;;;;;;5087789;28;19908;-67
2023/08/01 03:37:39;;;;;;;;;;;17.50;99.00;;;;;;5087547;28;19920;-67
2023/08/01 03:40:08;;;;;;;;;;;17.50;99.00;;;;;;5087943;28;20594;-67
2023/08/01 03:42:34;;;;;;;;;;;17.50;99.00;;;;;;5069682;28;19908;-67
2023/08/01 03:44:59;;;;;;;;;;;17.50;99.00;;;;;;5078170;28;20572;-67
2023/08/01 03:47:25;;;;;;;;;;;17.50;99.10;;;;;;5088736;28;20311;-67
2023/08/01 03:49:50;;;;;;;;;;;17.50;99.30;;;;;;5087633;28;19969;-67
2023/08/01 03:52:16;;;;;;;;;;;17.50;99.20;;;;;;5087874;28;19919;-67
2023/08/01 03:54:41;;;;;;;;;;;17.50;99.20;;;;;;5067976;28;20317;-67
2023/08/01 03:57:07;;;;;;;;;;;17.50;99.30;;;;;;5087510;28;19958;-67
2023/08/01 03:59:32;;;;;;;;;;;17.50;99.20;;;;;;5087608;28;19916;-67
2023/08/01 04:01:58;;;;;;;;;;;17.50;99.10;;;;;;5070070;28;20003;-67
2023/08/01 04:04:23;;;;;;;;;;;17.50;99.30;;;;;;5069459;28;19908;-67
2023/08/01 04:06:49;;;;;;;;;;;17.50;99.10;;;;;;5086995;28;20521;-67
2023/08/01 04:09:14;;;;;;;;;;;17.40;99.10;;;;;;5087618;28;19969;-67
2023/08/01 04:11:40;;;;;;;;;;;17.40;99.30;;;;;;5087436;28;20015;-67
2023/08/01 04:14:05;;;;;;;;;;;17.40;99.40;;;;;;5087621;28;19919;-67
2023/08/01 04:16:31;;;;;;;;;;;17.40;99.30;;;;;;5082025;28;19912;-67
2023/08/01 04:18:56;;;;;;;;;;;17.40;99.20;;;;;;5075747;28;19920;-67
2023/08/01 04:21:22;;;;;;;;;;;17.40;99.20;;;;;;5099506;28;19969;-67
2023/08/01 04:23:47;;;;;;;;;;;17.40;99.20;;;;;;5102168;28;19923;-67
2023/08/01 04:26:13;;;;;;;;;;;17.40;99.10;;;;;;5090839;28;19919;-67
2023/08/01 04:28:39;;;;;;;;;;;17.40;99.00;;;;;;5091221;28;19927;-67
2023/08/01 04:31:04;;;;;;;;;;;17.40;99.10;;;;;;5091050;28;19912;-66
2023/08/01 04:33:29;;;;;;;;;;;17.40;99.20;;;;;;5091035;28;19912;-67
2023/08/01 04:35:55;;;;;;;;;;;17.40;99.20;;;;;;5088723;28;19950;-67
2023/08/01 04:38:21;;;;;;;;;;;17.30;99.10;;;;;;5070869;28;19916;-67
2023/08/01 04:40:46;;;;;;;;;;;17.40;99.10;;;;;;5070134;28;19918;-66
2023/08/01 04:43:12;;;;;;;;;;;17.30;99.20;;;;;;5085118;28;19919;-66
2023/08/01 04:45:38;;;;;;;;;;;17.30;99.10;;;;;;5089211;28;19912;-67
2023/08/01 04:48:03;;;;;;;;;;;17.30;99.20;;;;;;5090049;28;20345;-67
2023/08/01 04:50:29;;;;;;;;;;;17.40;99.10;;;;;;5090295;28;20027;-66
2023/08/01 04:52:54;;;;;;;;;;;17.30;99.10;;;;;;5105885;28;19922;-66
2023/08/01 04:55:20;;;;;;;;;;;17.30;99.10;;;;;;5076469;28;20011;-67
2023/08/01 04:57:45;;;;;;;;;;;17.30;99.00;;;;;;5090144;28;19916;-66
2023/08/01 05:00:11;;;;;;;;;;;17.30;99.00;;;;;;5071520;28;19908;-67
2023/08/01 05:02:37;;;;;;;;;;;17.30;98.90;;;;;;5089508;28;19912;-67
2023/08/01 05:05:03;;;;;;;;;;;17.40;99.00;;;;;;5093556;28;19912;-66
2023/08/01 05:07:29;;;;;;;;;;;17.30;99.10;;;;;;5089922;28;19913;-67
2023/08/01 05:09:55;;;;;;;;;;;17.30;99.00;;;;;;5108225;28;19915;-66
2023/08/01 05:12:20;;;;;;;;;;;17.30;99.10;;;;;;5097382;28;19920;-66
2023/08/01 05:14:46;;;;;;;;;;;17.30;99.00;;;;;;5089914;28;19916;-67
2023/08/01 05:17:11;;;;;;;;;;;17.30;99.10;;;;;;5090006;28;19908;-66
2023/08/01 05:19:37;;;;;;;;;;;17.30;99.00;;;;;;5089796;28;19981;-66
2023/08/01 05:22:02;;;;;;;;;;;17.20;99.30;;;;;;5090203;28;19916;-67
2023/08/01 05:24:28;;;;;;;;;;;17.20;99.10;;;;;;5087851;28;20473;-66
2023/08/01 05:26:53;;;;;;;;;;;17.30;99.00;;;;;;5088901;28;19916;-66
2023/08/01 05:29:19;;;;;;;;;;;17.30;99.10;;;;;;5088597;28;19919;-66
2023/08/01 05:31:46;;;;;;;;;;;17.30;99.00;;;;;;5089287;28;20216;-67
2023/08/01 05:34:11;;;;;;;;;;;17.30;98.90;;;;;;5089612;28;19912;-66
2023/08/01 05:36:37;;;;;;;;;;;17.30;99.00;;;;;;5089373;28;19981;-66
2023/08/01 05:39:03;;;;;;;;;;;17.20;99.10;;;;;;5099304;28;19998;-66
2023/08/01 05:41:28;;;;;;;;;;;17.20;99.00;;;;;;5103476;28;19918;-67
2023/08/01 05:43:54;;;;;;;;;;;17.20;99.00;;;;;;5071051;28;19954;-66
2023/08/01 05:46:20;;;;;;;;;;;17.30;99.00;;;;;;5089354;28;19911;-66
2023/08/01 05:48:45;;;;;;;;;;;17.30;99.20;;;;;;5089398;28;20039;-66
2023/08/01 05:51:11;;;;;;;;;;;17.20;99.00;;;;;;5089284;28;19926;-66
2023/08/01 05:53:36;;;;;;;;;;;17.20;99.10;;;;;;5101531;28;19915;-67
2023/08/01 05:56:02;;;;;;;;;;;17.20;99.10;;;;;;5088752;28;20381;-66
2023/08/01 05:58:27;;;;;;;;;;;17.30;99.00;;;;;;5088770;28;19920;-66
2023/08/01 06:00:53;;;;;;;;;;;17.30;99.00;;;;;;5085360;28;19912;-66
2023/08/01 06:03:18;;;;;;;;;;;17.30;99.00;;;;;;5088476;28;19995;-66
2023/08/01 06:05:44;;;;;;;;;;;17.30;99.00;;;;;;5088511;28;19943;-67
2023/08/01 06:08:09;;;;;;;;;;;17.30;99.10;;;;;;5088526;28;19919;-66
2023/08/01 06:10:35;;;;;;;;;;;17.30;99.00;;;;;;5092017;28;20350;-66
2023/08/01 06:13:01;;;;;;;;;;;17.30;99.10;;;;;;5088037;28;19951;-66
2023/08/01 06:15:26;;;;;;;;;;;17.30;99.10;;;;;;5085775;28;20704;-66
2023/08/01 06:17:52;;;;;;;;;;;17.30;99.10;;;;;;5086695;28;20331;-67
2023/08/01 06:20:18;;;;;;;;;;;17.30;99.00;;;;;;5087821;28;20023;-66
2023/08/01 06:22:43;;;;;;;;;;;17.30;99.00;;;;;;5088563;28;20104;-66
2023/08/01 06:25:09;;;;;;;;;;;17.30;99.00;;;;;;5088228;28;19920;-66
2023/08/01 06:27:34;;;;;;;;;;;17.30;99.00;;;;;;5088960;28;19923;-66
2023/08/01 06:30:00;;;;;;;;;;;17.30;99.00;;;;;;5088454;28;20010;-66
2023/08/01 06:32:25;;;;;;;;;;;17.30;99.20;;;;;;5088858;28;19908;-66
2023/08/01 06:34:51;;;;;;;;;;;17.30;99.00;;;;;;5070056;28;20348;-66
2023/08/01 06:37:16;;;;;;;;;;;17.40;99.00;;;;;;5088562;28;19908;-66
2023/08/01 06:39:42;;;;;;;;;;;17.40;99.10;;;;;;5088774;28;19912;-66
2023/08/01 06:42:07;;;;;;;;;;;17.40;99.00;;;;;;5090968;28;19919;-66
2023/08/01 06:44:33;;;;;;;;;;;17.40;99.10;;;;;;5088608;28;20381;-66
2023/08/01 06:46:59;;;;;;;;;;;17.50;99.00;;;;;;5087997;28;19917;-66
2023/08/01 06:49:24;;;;;;;;;;;17.50;98.90;;;;;;5088086;28;19955;-67
2023/08/01 06:51:50;;;;;;;;;;;17.50;99.30;;;;;;5088471;28;19980;-66
2023/08/01 06:54:15;;;;;;;;;;;17.50;98.90;;;;;;5069963;28;19912;-66
2023/08/01 06:56:47;;;;;;;;;;;17.50;99.00;;;;;;5088070;28;19943;-66
2023/08/01 06:59:16;;;;;;;;;;;17.50;98.90;;;;;;5092556;28;19919;-66
2023/08/01 07:01:43;;;;;;;;;;;17.60;99.00;;;;;;5087579;28;20560;-66
2023/08/01 07:04:11;;;;;;;;;;;17.60;99.00;;;;;;5087697;28;19912;-67
2023/08/01 07:06:37;;;;;;;;;;;17.60;99.10;;;;;;5069749;28;19916;-66
2023/08/01 07:09:02;;;;;;;;;;;17.60;98.90;;;;;;5088088;28;20377;-66
2023/08/01 07:11:28;;;;;;;;;;;17.60;99.00;;;;;;5084616;28;20306;-66
2023/08/01 07:13:53;;;;;;;;;;;17.70;99.20;;;;;;5084344;28;19912;-66
2023/08/01 07:16:19;;;;;;;;;;;17.70;98.90;;;;;;5086371;28;19919;-66
2023/08/01 07:18:44;;;;;;;;;;;17.70;98.80;;;;;;5085963;28;19916;-66
2023/08/01 07:21:10;;;;;;;;;;;17.70;98.90;;;;;;5086618;28;20520;-66
2023/08/01 07:23:36;;;;;;;;;;;17.80;98.80;;;;;;5067703;28;20617;-67
2023/08/01 07:26:02;;;;;;;;;;;17.70;99.20;;;;;;5086491;28;19916;-66
2023/08/01 07:28:27;;;;;;;;;;;17.80;99.00;;;;;;5068743;28;20032;-67
2023/08/01 07:31:02;;;;;;;;;;;17.80;98.80;;;;;;5092905;28;20283;-66
2023/08/01 07:33:28;;;;;;;;;;;17.80;98.70;;;;;;5087920;28;20317;-66
2023/08/01 07:35:53;;;;;;;;;;;17.90;98.70;;;;;;5087813;28;19950;-66
2023/08/01 07:38:19;;;;;;;;;;;17.90;98.70;;;;;;5087982;28;19916;-67
2023/08/01 07:40:44;;;;;;;;;;;18.00;98.80;;;;;;5087861;28;19912;-66
2023/08/01 07:43:10;;;;;;;;;;;17.90;98.90;;;;;;5087905;28;19925;-66
2023/08/01 07:45:36;;;;;;;;;;;17.90;98.90;;;;;;5087678;28;19962;-66
2023/08/01 07:48:02;;;;;;;;;;;18.00;98.90;;;;;;5102351;28;20320;-66
2023/08/01 07:50:27;;;;;;;;;;;17.90;98.90;;;;;;5108086;28;19955;-66
2023/08/01 07:52:53;;;;;;;;;;;18.00;98.70;;;;;;5089157;28;19912;-66
2023/08/01 07:55:20;;;;;;;;;;;18.00;98.70;;;;;;5092309;28;19908;-66
2023/08/01 07:57:46;;;;;;;;;;;18.10;98.80;;;;;;5087664;28;19923;-67
2023/08/01 08:00:12;;;;;;;;;;;18.10;98.70;;;;;;5080499;28;20289;-66
2023/08/01 08:02:37;;;;;;;;;;;18.10;98.60;;;;;;5087271;28;19912;-66
2023/08/01 08:05:03;;;;;;;;;;;18.20;98.80;;;;;;5091860;28;19958;-66
2023/08/01 08:07:28;;;;;;;;;;;18.20;98.80;;;;;;5083707;28;19912;-67
2023/08/01 08:09:55;;;;;;;;;;;18.20;98.90;;;;;;5065518;28;19912;-67
2023/08/01 08:12:20;;;;;;;;;;;18.10;98.80;;;;;;5086850;28;20007;-66
2023/08/01 08:14:46;;;;;;;;;;;18.20;98.70;;;;;;5093845;28;19995;-67
2023/08/01 08:17:11;;;;;;;;;;;18.20;98.80;;;;;;5066287;28;19912;-66
2023/08/01 08:19:37;;;;;;;;;;;18.20;98.80;;;;;;5099086;28;20409;-67
2023/08/01 08:22:03;;;;;;;;;;;18.30;98.60;;;;;;5107218;28;19908;-66
2023/08/01 08:24:28;;;;;;;;;;;18.30;98.70;;;;;;5098532;28;19927;-67
2023/08/01 08:26:54;;;;;;;;;;;18.30;98.80;;;;;;5086832;28;19927;-66
2023/08/01 08:29:19;;;;;;;;;;;18.30;98.70;;;;;;5086340;28;19912;-66
2023/08/01 08:31:45;;;;;;;;;;;18.40;98.50;;;;;;5086870;28;19940;-66
2023/08/01 08:34:10;;;;;;;;;;;18.40;98.30;;;;;;5070266;28;19916;-67
2023/08/01 08:36:36;;;;;;;;;;;18.40;98.40;;;;;;5085369;28;19909;-66
2023/08/01 08:39:03;;;;;;;;;;;18.50;98.50;;;;;;5085769;28;19998;-67
2023/08/01 08:41:29;;;;;;;;;;;18.50;98.30;;;;;;5085757;28;19935;-66
2023/08/01 08:43:56;;;;;;;;;;;18.60;98.40;;;;;;5085189;28;20026;-66
2023/08/01 08:46:23;;;;;;;;;;;18.60;98.30;;;;;;5067569;28;19973;-66
2023/08/01 08:48:49;;;;;;;;;;;18.70;98.30;;;;;;5086849;28;19916;-67
2023/08/01 08:51:15;;;;;;;;;;;18.70;98.30;;;;;;5086155;28;19915;-66
2023/08/01 08:53:40;;;;;;;;;;;18.70;98.30;;;;;;5086245;28;19934;-67
2023/08/01 08:56:07;;;;;;;;;;;18.70;98.40;;;;;;5086208;28;19912;-67
2023/08/01 08:58:33;;;;;;;;;;;18.70;98.20;;;;;;5067986;28;19920;-67
2023/08/01 09:01:02;;;;;;;;;;;18.70;98.50;;;;;;5067236;28;19973;-66
2023/08/01 09:03:28;;;;;;;;;;;18.70;98.50;;;;;;5086028;28;19912;-66
2023/08/01 09:06:02;;;;;;;;;;;18.80;98.20;;;;;;5092696;28;19977;-66
2023/08/01 09:08:29;;;;;;;;;;;18.80;98.20;;;;;;5090049;28;20017;-66
2023/08/01 09:10:55;;;;;;;;;;;18.80;98.30;;;;;;5089581;28;20627;-66
2023/08/01 09:13:21;;;;;;;;;;;18.80;98.10;;;;;;5089215;28;19918;-66
2023/08/01 09:15:47;;;;;;;;;;;18.80;98.10;;;;;;5089115;28;19914;-66
2023/08/01 09:18:12;;;;;;;;;;;18.80;98.10;;;;;;5091705;28;19916;-67
2023/08/01 09:20:45;;;;;;;;;;;18.80;98.20;;;;;;5089258;28;19959;-67
2023/08/01 09:23:11;;;;;;;;;;;18.90;98.00;;;;;;5090138;28;19916;-66
2023/08/01 09:25:36;;;;;;;;;;;18.90;97.90;;;;;;5087279;28;20395;-67
2023/08/01 09:28:02;;;;;;;;;;;18.90;97.90;;;;;;5089136;28;19912;-66
2023/08/01 09:30:28;;;;;;;;;;;19.00;97.80;;;;;;5070874;28;19916;-67
2023/08/01 09:32:54;;;;;;;;;;;19.00;97.80;;;;;;5071011;28;20732;-67
2023/08/01 09:35:21;;;;;;;;;;;19.00;97.70;;;;;;5088555;28;19912;-66
2023/08/01 09:37:47;;;;;;;;;;;19.00;97.70;;;;;;5087885;28;20658;-66
2023/08/01 09:40:13;;;;;;;;;;;19.00;97.60;;;;;;5089850;28;19990;-67
2023/08/01 09:42:39;;;;;;;;;;;19.10;97.50;;;;;;5070924;28;19916;-66
2023/08/01 09:45:13;;;;;;;;;;;19.10;97.50;;;;;;5089256;28;19913;-66
2023/08/01 09:47:38;;;;;;;;;;;19.20;97.40;;;;;;5089184;28;20404;-66
2023/08/01 09:50:04;;;;;;;;;;;19.40;97.20;;;;;;5089174;28;19912;-66
2023/08/01 09:52:29;;;;;;;;;;;19.50;97.00;;;;;;5071074;28;19966;-66
2023/08/01 09:54:55;;;;;;;;;;;19.50;97.00;;;;;;5097305;28;19916;-66
2023/08/01 09:57:21;;;;;;;;;;;19.50;97.10;;;;;;5109394;28;20384;-67
2023/08/01 09:59:47;;;;;;;;;;;19.50;96.90;;;;;;5096933;28;19913;-67
2023/08/01 10:02:15;;;;;;;;;;;19.60;97.00;;;;;;5088572;28;19912;-67
2023/08/01 10:04:41;;;;;;;;;;;19.70;96.80;;;;;;5088771;28;20003;-66
2023/08/01 10:07:07;;;;;;;;;;;19.80;96.90;;;;;;5088482;28;20036;-67
2023/08/01 10:09:35;;;;;;;;;;;19.80;96.60;;;;;;5089204;28;19919;-66
2023/08/01 10:12:01;;;;;;;;;;;19.90;96.30;;;;;;5089933;28;19916;-66
2023/08/01 10:14:27;;;;;;;;;;;19.90;96.40;;;;;;5088587;28;20369;-66
2023/08/01 10:16:53;;;;;;;;;;;19.80;96.60;;;;;;5073998;28;20573;-66
2023/08/01 10:19:19;;;;;;;;;;;19.80;96.40;;;;;;5082761;28;19927;-66
2023/08/01 10:21:45;;;;;;;;;;;19.80;96.80;;;;;;5088524;28;20561;-67
2023/08/01 10:24:12;;;;;;;;;;;19.70;97.00;;;;;;5092267;28;19923;-67
2023/08/01 10:26:37;;;;;;;;;;;19.60;97.00;;;;;;5108683;28;19911;-67
2023/08/01 10:29:03;;;;;;;;;;;19.60;97.20;;;;;;5107806;28;20487;-67
2023/08/01 10:31:29;;;;;;;;;;;19.50;97.20;;;;;;5108426;28;19923;-67
2023/08/01 10:34:03;;;;;;;;;;;19.50;97.10;;;;;;5103247;28;20307;-67
2023/08/01 10:36:31;;;;;;;;;;;19.50;97.20;;;;;;5087728;28;19912;-66
2023/08/01 10:38:57;;;;;;;;;;;19.50;97.30;;;;;;5087890;28;19965;-67
2023/08/01 10:41:26;;;;;;;;;;;19.50;97.30;;;;;;5084769;28;20285;-67
2023/08/01 10:43:51;;;;;;;;;;;19.50;97.30;;;;;;5090640;28;20292;-67
2023/08/01 10:46:17;;;;;;;;;;;19.50;97.40;;;;;;5087426;28;19912;-67
2023/08/01 10:48:52;;;;;;;;;;;19.70;97.20;;;;;;5087132;28;19923;-67
2023/08/01 10:51:18;;;;;;;;;;;19.70;97.20;;;;;;5085742;28;19912;-67
2023/08/01 10:53:44;;;;;;;;;;;19.70;97.10;;;;;;5085681;28;19912;-67
2023/08/01 10:56:17;;;;;;;;;;;19.80;97.40;;;;;;5089068;28;19916;-67
2023/08/01 10:58:42;;;;;;;;;;;19.80;97.40;;;;;;5087007;28;19970;-67
2023/08/01 11:01:08;;;;;;;;;;;19.90;97.30;;;;;;5086916;28;20723;-67
2023/08/01 11:03:37;;;;;;;;;;;20.10;97.20;;;;;;5087416;28;19962;-67
2023/08/01 11:06:03;;;;;;;;;;;20.20;96.90;;;;;;5087210;28;19957;-67
2023/08/01 11:08:39;;;;;;;;;;;20.20;97.20;;;;;;5087290;28;20063;-67
2023/08/01 11:11:06;;;;;;;;;;;20.20;97.00;;;;;;5102621;28;19954;-67
2023/08/01 11:13:34;;;;;;;;;;;20.10;97.20;;;;;;5095447;28;19912;-66
2023/08/01 11:16:01;;;;;;;;;;;20.10;97.30;;;;;;5086788;28;19912;-68
2023/08/01 11:18:26;;;;;;;;;;;20.00;97.40;;;;;;5087110;28;19912;-67
2023/08/01 11:20:51;;;;;;;;;;;19.90;97.60;;;;;;5100418;28;20352;-67
2023/08/01 11:23:17;;;;;;;;;;;19.80;97.60;;;;;;5107546;28;19912;-67
2023/08/01 11:25:45;;;;;;;;;;;19.80;97.50;;;;;;5088726;28;20019;-67
2023/08/01 11:28:14;;;;;;;;;;;19.70;97.30;;;;;;5087153;28;19915;-67
2023/08/01 11:30:40;;;;;;;;;;;19.60;97.70;;;;;;5107025;28;19912;-67
2023/08/01 11:33:20;;;;;;;;;;;19.70;97.70;;;;;;5107491;28;20002;-67
2023/08/01 11:35:46;;;;;;;;;;;19.60;97.60;;;;;;5066710;28;20454;-67
2023/08/01 11:38:11;;;;;;;;;;;19.50;97.40;;;;;;5077931;28;19923;-68
2023/08/01 11:40:37;;;;;;;;;;;19.50;97.60;;;;;;5086420;28;19912;-67
2023/08/01 11:43:03;;;;;;;;;;;19.50;97.50;;;;;;5075462;28;19916;-67
2023/08/01 11:45:28;;;;;;;;;;;19.50;97.50;;;;;;5078367;28;19912;-67
2023/08/01 11:47:54;;;;;;;;;;;19.50;97.50;;;;;;5065536;28;20582;-68
2023/08/01 11:50:23;;;;;;;;;;;19.50;97.40;;;;;;5047182;28;19912;-68
2023/08/01 11:52:49;;;;;;;;;;;19.40;97.50;;;;;;5066648;28;19970;-68
2023/08/01 11:55:19;;;;;;;;;;;19.40;97.50;;;;;;5079634;28;19947;-67
2023/08/01 11:57:51;;;;;;;;;;;19.40;97.60;;;;;;5086814;28;19923;-67
2023/08/01 12:00:20;;;;;;;;;;;19.40;97.30;;;;;;5087225;28;19916;-67
2023/08/01 12:02:46;;;;;;;;;;;19.40;97.20;;;;;;5086369;28;20002;-68
2023/08/01 12:05:20;;;;;;;;;;;19.50;97.20;;;;;;5086046;28;20428;-67
2023/08/01 12:07:46;;;;;;;;;;;19.50;97.10;;;;;;5086578;28;19916;-68
2023/08/01 12:10:11;;;;;;;;;;;19.60;97.10;;;;;;5084256;28;20419;-67
2023/08/01 12:12:42;;;;;;;;;;;19.70;97.00;;;;;;5088003;28;19912;-67
2023/08/01 12:15:08;;;;;;;;;;;19.80;97.10;;;;;;5088202;28;20017;-67
2023/08/01 12:17:34;;;;;;;;;;;19.90;97.30;;;;;;5088989;28;20339;-67
2023/08/01 12:19:59;;;;;;;;;;;20.00;97.00;;;;;;5088337;28;19909;-67
2023/08/01 12:22:24;;;;;;;;;;;20.10;97.10;;;;;;5088498;28;19912;-67
2023/08/01 12:24:50;;;;;;;;;;;20.10;96.90;;;;;;5086804;28;19963;-67
2023/08/01 12:27:15;;;;;;;;;;;20.10;97.10;;;;;;5088432;28;20053;-67
2023/08/01 12:29:41;;;;;;;;;;;20.10;97.10;;;;;;5096298;28;19926;-67
2023/08/01 12:32:07;;;;;;;;;;;20.10;97.00;;;;;;5092913;28;20392;-68
2023/08/01 12:34:33;;;;;;;;;;;20.20;97.00;;;;;;5088295;28;19908;-67
2023/08/01 12:36:59;;;;;;;;;;;20.10;96.90;;;;;;5069856;28;20435;-67
2023/08/01 12:39:25;;;;;;;;;;;20.20;97.20;;;;;;5089929;28;19966;-67
2023/08/01 12:41:52;;;;;;;;;;;20.20;97.00;;;;;;5092238;28;19919;-67
2023/08/01 12:44:18;;;;;;;;;;;20.20;97.00;;;;;;5090396;28;19919;-67
2023/08/01 12:46:43;;;;;;;;;;;20.20;96.90;;;;;;5089743;28;19912;-67
2023/08/01 12:49:09;;;;;;;;;;;20.20;96.90;;;;;;5090243;28;19942;-67
2023/08/01 12:51:34;;;;;;;;;;;20.30;96.90;;;;;;5085562;28;19955;-67
2023/08/01 12:54:00;;;;;;;;;;;20.30;96.90;;;;;;5087927;28;19912;-67
2023/08/01 12:56:25;;;;;;;;;;;20.20;97.00;;;;;;5089930;28;20281;-67
2023/08/01 12:58:51;;;;;;;;;;;20.20;96.90;;;;;;5089731;28;19916;-68
2023/08/01 13:01:16;;;;;;;;;;;20.20;96.80;;;;;;5086663;28;20413;-67
2023/08/01 13:03:42;;;;;;;;;;;20.20;96.80;;;;;;5083537;28;19995;-68
2023/08/01 13:06:10;;;;;;;;;;;20.20;96.90;;;;;;5070675;28;19990;-67
2023/08/01 13:08:35;;;;;;;;;;;20.20;96.90;;;;;;5081350;28;20014;-67
2023/08/01 13:11:02;;;;;;;;;;;20.20;97.00;;;;;;5089971;28;20498;-67
2023/08/01 13:13:28;;;;;;;;;;;20.20;96.80;;;;;;5089544;28;19912;-67
2023/08/01 13:15:55;;;;;;;;;;;20.20;96.90;;;;;;5088516;28;20345;-67
2023/08/01 13:18:21;;;;;;;;;;;20.30;96.80;;;;;;5110451;28;19921;-67
2023/08/01 13:20:46;;;;;;;;;;;20.30;96.70;;;;;;5091279;28;19908;-67
2023/08/01 13:23:12;;;;;;;;;;;20.40;96.70;;;;;;5072501;28;20539;-67
2023/08/01 13:25:37;;;;;;;;;;;20.60;96.60;;;;;;5065047;28;19958;-67
2023/08/01 13:28:03;;;;;;;;;;;20.60;96.40;;;;;;5081587;28;19919;-67
2023/08/01 13:30:29;;;;;;;;;;;20.70;96.30;;;;;;5110660;28;19911;-67
2023/08/01 13:32:54;;;;;;;;;;;20.80;96.50;;;;;;5086824;28;19923;-67
2023/08/01 13:35:20;;;;;;;;;;;20.80;96.60;;;;;;5089169;28;20594;-67
2023/08/01 13:37:45;;;;;;;;;;;20.90;96.90;;;;;;5090165;28;19922;-67
2023/08/01 13:40:13;;;;;;;;;;;21.00;96.70;;;;;;5090071;28;19908;-67
2023/08/01 13:42:39;;;;;;;;;;;21.20;96.60;;;;;;5072004;28;19965;-67
2023/08/01 13:45:05;;;;;;;;;;;21.20;96.30;;;;;;5079032;28;19912;-67
2023/08/01 13:47:30;;;;;;;;;;;21.20;96.50;;;;;;5069679;28;20394;-67
2023/08/01 13:49:56;;;;;;;;;;;21.20;96.00;;;;;;5079720;28;19912;-67
2023/08/01 13:52:22;;;;;;;;;;;21.10;96.70;;;;;;5089458;28;20673;-67
2023/08/01 13:54:47;;;;;;;;;;;21.10;96.70;;;;;;5088461;28;19919;-67
2023/08/01 13:57:13;;;;;;;;;;;21.00;96.10;;;;;;5071366;28;20422;-67
2023/08/01 13:59:38;;;;;;;;;;;21.00;96.90;;;;;;5084982;28;19923;-67
2023/08/01 14:02:04;;;;;;;;;;;21.00;96.30;;;;;;5087812;28;20281;-67
2023/08/01 14:04:29;;;;;;;;;;;20.90;96.10;;;;;;5071257;28;19912;-67
2023/08/01 14:06:55;;;;;;;;;;;21.00;96.60;;;;;;5071964;28;19969;-67
2023/08/01 14:09:21;;;;;;;;;;;21.00;96.30;;;;;;5089716;28;19922;-67